sensor_id;sensor_type;location;lat;lon;timestamp;P1;durP1;ratioP1;P2;durP2;ratioP2
68449;SDS011;67758;39.572;2.652;2023-04-08T00:01:47;7.03;;;1.17;;
68449;SDS011;67758;39.572;2.652;2023-04-08T00:04:13;8.95;;;1.20;;
68449;SDS011;67758;39.572;2.652;2023-04-08T00:06:39;6.17;;;1.20;;
68449;SDS011;67758;39.572;2.652;2023-04-08T00:09:04;5.78;;;1.40;;
68449;SDS011;67758;39.572;2.652;2023-04-08T00:11:31;6.43;;;1.20;;
68449;SDS011;67758;39.572;2.652;2023-04-08T00:13:56;6.70;;;1.27;;
68449;SDS011;67758;39.572;2.652;2023-04-08T00:16:22;7.07;;;1.20;;
68449;SDS011;67758;39.572;2.652;2023-04-08T00:18:48;5.53;;;1.35;;
68449;SDS011;67758;39.572;2.652;2023-04-08T00:21:13;4.73;;;0.90;;
68449;SDS011;67758;39.572;2.652;2023-04-08T00:23:42;4.10;;;1.10;;
68449;SDS011;67758;39.572;2.652;2023-04-08T00:26:08;4.60;;;1.20;;
68449;SDS011;67758;39.572;2.652;2023-04-08T00:28:33;7.03;;;1.43;;
68449;SDS011;67758;39.572;2.652;2023-04-08T00:30:59;4.25;;;1.02;;
68449;SDS011;67758;39.572;2.652;2023-04-08T00:33:25;5.70;;;1.30;;
68449;SDS011;67758;39.572;2.652;2023-04-08T00:35:50;5.78;;;1.17;;
68449;SDS011;67758;39.572;2.652;2023-04-08T00:38:16;6.50;;;1.10;;
68449;SDS011;67758;39.572;2.652;2023-04-08T00:40:42;6.17;;;1.30;;
68449;SDS011;67758;39.572;2.652;2023-04-08T00:43:11;9.13;;;1.30;;
68449;SDS011;67758;39.572;2.652;2023-04-08T00:45:42;5.32;;;1.13;;
68449;SDS011;67758;39.572;2.652;2023-04-08T00:48:08;7.10;;;1.37;;
68449;SDS011;67758;39.572;2.652;2023-04-08T00:50:34;4.37;;;0.90;;
68449;SDS011;67758;39.572;2.652;2023-04-08T00:53:00;4.90;;;1.10;;
68449;SDS011;67758;39.572;2.652;2023-04-08T00:55:25;8.57;;;1.10;;
68449;SDS011;67758;39.572;2.652;2023-04-08T00:57:51;6.43;;;1.30;;
68449;SDS011;67758;39.572;2.652;2023-04-08T01:00:17;5.95;;;1.40;;
68449;SDS011;67758;39.572;2.652;2023-04-08T01:05:17;7.17;;;1.60;;
68449;SDS011;67758;39.572;2.652;2023-04-08T01:07:54;5.78;;;1.30;;
68449;SDS011;67758;39.572;2.652;2023-04-08T01:10:28;5.15;;;1.20;;
68449;SDS011;67758;39.572;2.652;2023-04-08T01:12:56;8.50;;;1.25;;
68449;SDS011;67758;39.572;2.652;2023-04-08T01:15:25;4.85;;;0.93;;
68449;SDS011;67758;39.572;2.652;2023-04-08T01:17:52;7.30;;;1.10;;
68449;SDS011;67758;39.572;2.652;2023-04-08T01:20:18;6.40;;;1.27;;
68449;SDS011;67758;39.572;2.652;2023-04-08T01:25:35;7.90;;;1.50;;
68449;SDS011;67758;39.572;2.652;2023-04-08T01:28:12;6.28;;;1.67;;
68449;SDS011;67758;39.572;2.652;2023-04-08T01:30:40;5.43;;;1.60;;
68449;SDS011;67758;39.572;2.652;2023-04-08T01:33:09;6.30;;;1.55;;
68449;SDS011;67758;39.572;2.652;2023-04-08T01:35:36;6.78;;;1.60;;
68449;SDS011;67758;39.572;2.652;2023-04-08T01:38:02;6.35;;;1.30;;
68449;SDS011;67758;39.572;2.652;2023-04-08T01:40:31;6.10;;;1.38;;
68449;SDS011;67758;39.572;2.652;2023-04-08T01:42:59;6.10;;;1.30;;
68449;SDS011;67758;39.572;2.652;2023-04-08T01:45:26;5.32;;;0.98;;
68449;SDS011;67758;39.572;2.652;2023-04-08T01:47:54;5.13;;;1.00;;
68449;SDS011;67758;39.572;2.652;2023-04-08T01:50:21;4.50;;;1.00;;
68449;SDS011;67758;39.572;2.652;2023-04-08T01:52:47;6.93;;;1.30;;
68449;SDS011;67758;39.572;2.652;2023-04-08T01:55:14;5.67;;;1.03;;
68449;SDS011;67758;39.572;2.652;2023-04-08T01:57:40;4.65;;;1.20;;
68449;SDS011;67758;39.572;2.652;2023-04-08T02:00:10;6.57;;;1.25;;
68449;SDS011;67758;39.572;2.652;2023-04-08T02:02:37;6.80;;;1.00;;
68449;SDS011;67758;39.572;2.652;2023-04-08T02:05:06;7.35;;;1.08;;
68449;SDS011;67758;39.572;2.652;2023-04-08T02:07:33;6.90;;;1.00;;
68449;SDS011;67758;39.572;2.652;2023-04-08T02:09:58;5.82;;;1.13;;
68449;SDS011;67758;39.572;2.652;2023-04-08T02:12:24;4.67;;;0.90;;
68449;SDS011;67758;39.572;2.652;2023-04-08T02:14:51;6.28;;;0.90;;
68449;SDS011;67758;39.572;2.652;2023-04-08T02:20:02;5.85;;;1.33;;
68449;SDS011;67758;39.572;2.652;2023-04-08T02:25:16;5.60;;;0.90;;
68449;SDS011;67758;39.572;2.652;2023-04-08T02:27:49;5.60;;;0.95;;
68449;SDS011;67758;39.572;2.652;2023-04-08T02:30:17;6.15;;;1.10;;
68449;SDS011;67758;39.572;2.652;2023-04-08T02:32:44;5.15;;;1.13;;
68449;SDS011;67758;39.572;2.652;2023-04-08T02:35:11;6.40;;;1.00;;
68449;SDS011;67758;39.572;2.652;2023-04-08T02:37:38;6.70;;;0.70;;
68449;SDS011;67758;39.572;2.652;2023-04-08T02:40:21;4.93;;;1.35;;
68449;SDS011;67758;39.572;2.652;2023-04-08T02:42:48;6.43;;;0.98;;
68449;SDS011;67758;39.572;2.652;2023-04-08T02:45:13;4.00;;;0.70;;
68449;SDS011;67758;39.572;2.652;2023-04-08T02:47:39;5.38;;;1.17;;
68449;SDS011;67758;39.572;2.652;2023-04-08T02:50:05;3.80;;;0.80;;
68449;SDS011;67758;39.572;2.652;2023-04-08T02:52:31;7.53;;;1.25;;
68449;SDS011;67758;39.572;2.652;2023-04-08T02:54:56;4.23;;;0.83;;
68449;SDS011;67758;39.572;2.652;2023-04-08T02:57:22;5.80;;;1.10;;
68449;SDS011;67758;39.572;2.652;2023-04-08T02:59:47;4.83;;;1.10;;
68449;SDS011;67758;39.572;2.652;2023-04-08T03:02:13;6.30;;;1.53;;
68449;SDS011;67758;39.572;2.652;2023-04-08T03:04:38;7.13;;;1.17;;
68449;SDS011;67758;39.572;2.652;2023-04-08T03:07:04;9.17;;;1.23;;
68449;SDS011;67758;39.572;2.652;2023-04-08T03:09:30;4.35;;;1.23;;
68449;SDS011;67758;39.572;2.652;2023-04-08T03:11:56;5.27;;;1.10;;
68449;SDS011;67758;39.572;2.652;2023-04-08T03:14:22;6.50;;;1.30;;
68449;SDS011;67758;39.572;2.652;2023-04-08T03:16:48;5.50;;;1.15;;
68449;SDS011;67758;39.572;2.652;2023-04-08T03:19:13;5.60;;;1.00;;
68449;SDS011;67758;39.572;2.652;2023-04-08T03:21:39;6.65;;;1.20;;
68449;SDS011;67758;39.572;2.652;2023-04-08T03:24:05;4.97;;;0.90;;
68449;SDS011;67758;39.572;2.652;2023-04-08T03:26:30;4.30;;;1.20;;
68449;SDS011;67758;39.572;2.652;2023-04-08T03:28:56;7.00;;;1.30;;
68449;SDS011;67758;39.572;2.652;2023-04-08T03:31:22;5.20;;;1.00;;
68449;SDS011;67758;39.572;2.652;2023-04-08T03:33:47;7.43;;;1.30;;
68449;SDS011;67758;39.572;2.652;2023-04-08T03:36:13;4.33;;;0.90;;
68449;SDS011;67758;39.572;2.652;2023-04-08T03:38:39;7.05;;;1.33;;
68449;SDS011;67758;39.572;2.652;2023-04-08T03:41:04;6.17;;;1.20;;
68449;SDS011;67758;39.572;2.652;2023-04-08T03:43:30;6.30;;;1.20;;
68449;SDS011;67758;39.572;2.652;2023-04-08T03:45:55;5.25;;;1.00;;
68449;SDS011;67758;39.572;2.652;2023-04-08T03:48:21;5.37;;;1.43;;
68449;SDS011;67758;39.572;2.652;2023-04-08T03:50:47;6.10;;;1.60;;
68449;SDS011;67758;39.572;2.652;2023-04-08T03:53:12;6.53;;;1.27;;
68449;SDS011;67758;39.572;2.652;2023-04-08T03:55:38;6.82;;;1.67;;
68449;SDS011;67758;39.572;2.652;2023-04-08T03:58:04;6.20;;;1.43;;
68449;SDS011;67758;39.572;2.652;2023-04-08T04:00:30;7.97;;;1.60;;
68449;SDS011;67758;39.572;2.652;2023-04-08T04:02:55;7.93;;;1.90;;
68449;SDS011;67758;39.572;2.652;2023-04-08T04:05:24;6.90;;;1.53;;
68449;SDS011;67758;39.572;2.652;2023-04-08T04:07:49;7.05;;;1.88;;
68449;SDS011;67758;39.572;2.652;2023-04-08T04:10:15;8.50;;;1.70;;
68449;SDS011;67758;39.572;2.652;2023-04-08T04:12:41;7.03;;;1.98;;
68449;SDS011;67758;39.572;2.652;2023-04-08T04:15:06;6.33;;;1.30;;
68449;SDS011;67758;39.572;2.652;2023-04-08T04:17:33;7.43;;;1.60;;
68449;SDS011;67758;39.572;2.652;2023-04-08T04:19:58;7.60;;;1.55;;
68449;SDS011;67758;39.572;2.652;2023-04-08T04:22:24;9.25;;;1.70;;
68449;SDS011;67758;39.572;2.652;2023-04-08T04:24:50;8.40;;;1.53;;
68449;SDS011;67758;39.572;2.652;2023-04-08T04:27:15;6.23;;;1.30;;
68449;SDS011;67758;39.572;2.652;2023-04-08T04:29:42;5.43;;;1.00;;
68449;SDS011;67758;39.572;2.652;2023-04-08T04:32:08;8.55;;;1.52;;
68449;SDS011;67758;39.572;2.652;2023-04-08T04:34:34;6.97;;;1.40;;
68449;SDS011;67758;39.572;2.652;2023-04-08T04:36:59;8.73;;;1.65;;
68449;SDS011;67758;39.572;2.652;2023-04-08T04:39:25;8.50;;;1.53;;
68449;SDS011;67758;39.572;2.652;2023-04-08T04:41:51;11.05;;;1.63;;
68449;SDS011;67758;39.572;2.652;2023-04-08T04:44:16;13.07;;;1.90;;
68449;SDS011;67758;39.572;2.652;2023-04-08T04:46:42;8.90;;;1.50;;
68449;SDS011;67758;39.572;2.652;2023-04-08T04:49:07;8.63;;;1.50;;
68449;SDS011;67758;39.572;2.652;2023-04-08T04:51:33;6.67;;;1.40;;
68449;SDS011;67758;39.572;2.652;2023-04-08T04:53:59;6.90;;;1.50;;
68449;SDS011;67758;39.572;2.652;2023-04-08T04:56:24;6.80;;;1.43;;
68449;SDS011;67758;39.572;2.652;2023-04-08T04:58:51;7.95;;;1.25;;
68449;SDS011;67758;39.572;2.652;2023-04-08T05:01:16;7.90;;;1.53;;
68449;SDS011;67758;39.572;2.652;2023-04-08T05:03:42;9.60;;;1.60;;
68449;SDS011;67758;39.572;2.652;2023-04-08T05:06:08;8.93;;;1.63;;
68449;SDS011;67758;39.572;2.652;2023-04-08T05:08:33;8.95;;;1.80;;
68449;SDS011;67758;39.572;2.652;2023-04-08T05:10:59;9.23;;;1.70;;
68449;SDS011;67758;39.572;2.652;2023-04-08T05:13:26;8.75;;;1.75;;
68449;SDS011;67758;39.572;2.652;2023-04-08T05:15:53;5.80;;;1.38;;
68449;SDS011;67758;39.572;2.652;2023-04-08T05:18:18;9.63;;;2.13;;
68449;SDS011;67758;39.572;2.652;2023-04-08T05:20:44;11.20;;;1.80;;
68449;SDS011;67758;39.572;2.652;2023-04-08T05:23:10;13.05;;;1.88;;
68449;SDS011;67758;39.572;2.652;2023-04-08T05:25:36;9.02;;;2.00;;
68449;SDS011;67758;39.572;2.652;2023-04-08T05:28:02;6.40;;;2.07;;
68449;SDS011;67758;39.572;2.652;2023-04-08T05:30:28;7.43;;;1.40;;
68449;SDS011;67758;39.572;2.652;2023-04-08T05:32:54;7.03;;;1.55;;
68449;SDS011;67758;39.572;2.652;2023-04-08T05:35:20;5.97;;;1.30;;
68449;SDS011;67758;39.572;2.652;2023-04-08T05:37:46;9.32;;;1.42;;
68449;SDS011;67758;39.572;2.652;2023-04-08T05:40:12;9.15;;;1.90;;
68449;SDS011;67758;39.572;2.652;2023-04-08T05:42:38;12.13;;;2.07;;
68449;SDS011;67758;39.572;2.652;2023-04-08T05:45:06;8.98;;;2.08;;
68449;SDS011;67758;39.572;2.652;2023-04-08T05:47:32;6.78;;;1.60;;
68449;SDS011;67758;39.572;2.652;2023-04-08T05:49:58;9.90;;;1.50;;
68449;SDS011;67758;39.572;2.652;2023-04-08T05:52:23;6.68;;;2.13;;
68449;SDS011;67758;39.572;2.652;2023-04-08T05:54:49;10.60;;;2.30;;
68449;SDS011;67758;39.572;2.652;2023-04-08T05:57:15;8.07;;;1.75;;
68449;SDS011;67758;39.572;2.652;2023-04-08T05:59:41;12.20;;;2.00;;
68449;SDS011;67758;39.572;2.652;2023-04-08T06:02:06;6.60;;;1.80;;
68449;SDS011;67758;39.572;2.652;2023-04-08T06:04:32;10.23;;;2.57;;
68449;SDS011;67758;39.572;2.652;2023-04-08T06:06:57;8.40;;;2.35;;
68449;SDS011;67758;39.572;2.652;2023-04-08T06:09:25;10.47;;;2.77;;
68449;SDS011;67758;39.572;2.652;2023-04-08T06:11:51;11.10;;;1.73;;
68449;SDS011;67758;39.572;2.652;2023-04-08T06:14:16;11.23;;;2.08;;
68449;SDS011;67758;39.572;2.652;2023-04-08T06:16:42;8.43;;;2.00;;
68449;SDS011;67758;39.572;2.652;2023-04-08T06:19:08;15.43;;;2.72;;
68449;SDS011;67758;39.572;2.652;2023-04-08T06:21:33;8.63;;;2.70;;
68449;SDS011;67758;39.572;2.652;2023-04-08T06:23:59;13.07;;;2.88;;
68449;SDS011;67758;39.572;2.652;2023-04-08T06:26:25;9.37;;;2.67;;
68449;SDS011;67758;39.572;2.652;2023-04-08T06:28:52;10.18;;;2.78;;
68449;SDS011;67758;39.572;2.652;2023-04-08T06:31:17;9.93;;;2.50;;
68449;SDS011;67758;39.572;2.652;2023-04-08T06:33:43;12.30;;;2.37;;
68449;SDS011;67758;39.572;2.652;2023-04-08T06:36:09;10.55;;;2.10;;
68449;SDS011;67758;39.572;2.652;2023-04-08T06:38:35;8.33;;;2.30;;
68449;SDS011;67758;39.572;2.652;2023-04-08T06:41:01;11.23;;;2.28;;
68449;SDS011;67758;39.572;2.652;2023-04-08T06:43:27;12.18;;;2.75;;
68449;SDS011;67758;39.572;2.652;2023-04-08T06:45:54;8.93;;;2.60;;
68449;SDS011;67758;39.572;2.652;2023-04-08T06:48:20;10.25;;;2.83;;
68449;SDS011;67758;39.572;2.652;2023-04-08T06:50:47;8.40;;;2.53;;
68449;SDS011;67758;39.572;2.652;2023-04-08T06:53:13;9.20;;;2.60;;
68449;SDS011;67758;39.572;2.652;2023-04-08T06:55:39;10.90;;;2.60;;
68449;SDS011;67758;39.572;2.652;2023-04-08T06:58:05;8.77;;;3.00;;
68449;SDS011;67758;39.572;2.652;2023-04-08T07:00:30;9.03;;;3.30;;
68449;SDS011;67758;39.572;2.652;2023-04-08T07:02:56;12.33;;;3.90;;
68449;SDS011;67758;39.572;2.652;2023-04-08T07:05:22;17.33;;;5.38;;
68449;SDS011;67758;39.572;2.652;2023-04-08T07:07:47;11.17;;;4.43;;
68449;SDS011;67758;39.572;2.652;2023-04-08T07:10:13;10.80;;;4.27;;
68449;SDS011;67758;39.572;2.652;2023-04-08T07:12:38;8.85;;;3.75;;
68449;SDS011;67758;39.572;2.652;2023-04-08T07:15:04;8.77;;;2.50;;
68449;SDS011;67758;39.572;2.652;2023-04-08T07:17:30;8.82;;;2.38;;
68449;SDS011;67758;39.572;2.652;2023-04-08T07:19:56;8.98;;;3.08;;
68449;SDS011;67758;39.572;2.652;2023-04-08T07:22:22;7.80;;;2.57;;
68449;SDS011;67758;39.572;2.652;2023-04-08T07:24:47;9.57;;;3.07;;
68449;SDS011;67758;39.572;2.652;2023-04-08T07:27:14;12.25;;;3.00;;
68449;SDS011;67758;39.572;2.652;2023-04-08T07:29:41;10.77;;;3.30;;
68449;SDS011;67758;39.572;2.652;2023-04-08T07:32:06;10.13;;;3.00;;
68449;SDS011;67758;39.572;2.652;2023-04-08T07:34:35;15.73;;;3.67;;
68449;SDS011;67758;39.572;2.652;2023-04-08T07:37:01;17.13;;;4.20;;
68449;SDS011;67758;39.572;2.652;2023-04-08T07:39:26;13.87;;;3.60;;
68449;SDS011;67758;39.572;2.652;2023-04-08T07:41:52;12.13;;;3.60;;
68449;SDS011;67758;39.572;2.652;2023-04-08T07:44:32;12.95;;;3.85;;
68449;SDS011;67758;39.572;2.652;2023-04-08T07:46:58;13.60;;;4.33;;
68449;SDS011;67758;39.572;2.652;2023-04-08T07:49:24;9.63;;;3.42;;
68449;SDS011;67758;39.572;2.652;2023-04-08T07:51:50;8.10;;;2.53;;
68449;SDS011;67758;39.572;2.652;2023-04-08T07:54:19;11.10;;;3.47;;
68449;SDS011;67758;39.572;2.652;2023-04-08T07:56:44;7.40;;;2.25;;
68449;SDS011;67758;39.572;2.652;2023-04-08T07:59:10;5.03;;;1.27;;
68449;SDS011;67758;39.572;2.652;2023-04-08T08:01:36;5.97;;;1.20;;
68449;SDS011;67758;39.572;2.652;2023-04-08T08:04:02;8.00;;;1.30;;
68449;SDS011;67758;39.572;2.652;2023-04-08T08:06:28;5.63;;;1.40;;
68449;SDS011;67758;39.572;2.652;2023-04-08T08:08:56;6.45;;;1.33;;
68449;SDS011;67758;39.572;2.652;2023-04-08T08:11:22;6.90;;;1.23;;
68449;SDS011;67758;39.572;2.652;2023-04-08T08:13:48;5.07;;;0.90;;
68449;SDS011;67758;39.572;2.652;2023-04-08T08:16:13;5.90;;;1.13;;
68449;SDS011;67758;39.572;2.652;2023-04-08T08:18:39;5.73;;;1.10;;
68449;SDS011;67758;39.572;2.652;2023-04-08T08:21:05;3.90;;;0.85;;
68449;SDS011;67758;39.572;2.652;2023-04-08T08:23:31;5.90;;;1.00;;
68449;SDS011;67758;39.572;2.652;2023-04-08T08:26:04;6.40;;;1.00;;
68449;SDS011;67758;39.572;2.652;2023-04-08T08:28:34;4.43;;;1.00;;
68449;SDS011;67758;39.572;2.652;2023-04-08T08:31:00;4.90;;;1.00;;
68449;SDS011;67758;39.572;2.652;2023-04-08T08:33:26;8.05;;;1.13;;
68449;SDS011;67758;39.572;2.652;2023-04-08T08:35:52;4.87;;;0.87;;
68449;SDS011;67758;39.572;2.652;2023-04-08T08:38:18;5.25;;;0.75;;
68449;SDS011;67758;39.572;2.652;2023-04-08T08:40:44;3.72;;;0.90;;
68449;SDS011;67758;39.572;2.652;2023-04-08T08:43:10;8.67;;;1.00;;
68449;SDS011;67758;39.572;2.652;2023-04-08T08:45:39;7.13;;;0.80;;
68449;SDS011;67758;39.572;2.652;2023-04-08T08:48:06;7.70;;;1.27;;
68449;SDS011;67758;39.572;2.652;2023-04-08T08:50:33;8.15;;;1.00;;
68449;SDS011;67758;39.572;2.652;2023-04-08T08:52:59;3.70;;;0.82;;
68449;SDS011;67758;39.572;2.652;2023-04-08T08:55:28;5.77;;;0.97;;
68449;SDS011;67758;39.572;2.652;2023-04-08T08:58:00;4.03;;;0.75;;
68449;SDS011;67758;39.572;2.652;2023-04-08T09:00:30;6.07;;;0.80;;
68449;SDS011;67758;39.572;2.652;2023-04-08T09:03:33;7.32;;;0.90;;
68449;SDS011;67758;39.572;2.652;2023-04-08T09:05:53;8.13;;;0.85;;
68449;SDS011;67758;39.572;2.652;2023-04-08T09:08:22;4.90;;;0.77;;
68449;SDS011;67758;39.572;2.652;2023-04-08T09:10:48;6.00;;;1.00;;
68449;SDS011;67758;39.572;2.652;2023-04-08T09:13:13;6.03;;;0.93;;
68449;SDS011;67758;39.572;2.652;2023-04-08T09:18:32;6.05;;;1.10;;
68449;SDS011;67758;39.572;2.652;2023-04-08T09:20:58;7.47;;;1.27;;
68449;SDS011;67758;39.572;2.652;2023-04-08T09:23:36;5.23;;;0.77;;
68449;SDS011;67758;39.572;2.652;2023-04-08T09:26:09;6.10;;;0.88;;
68449;SDS011;67758;39.572;2.652;2023-04-08T09:28:37;5.03;;;0.98;;
68449;SDS011;67758;39.572;2.652;2023-04-08T09:31:12;5.78;;;0.80;;
68449;SDS011;67758;39.572;2.652;2023-04-08T09:33:43;4.97;;;0.90;;
68449;SDS011;67758;39.572;2.652;2023-04-08T09:36:09;5.13;;;0.83;;
68449;SDS011;67758;39.572;2.652;2023-04-08T09:38:35;9.10;;;0.90;;
68449;SDS011;67758;39.572;2.652;2023-04-08T09:41:01;5.93;;;0.80;;
68449;SDS011;67758;39.572;2.652;2023-04-08T09:43:32;2.92;;;0.75;;
68449;SDS011;67758;39.572;2.652;2023-04-08T09:46:00;9.45;;;1.10;;
68449;SDS011;67758;39.572;2.652;2023-04-08T09:48:30;5.38;;;0.90;;
68449;SDS011;67758;39.572;2.652;2023-04-08T09:51:02;3.60;;;0.70;;
68449;SDS011;67758;39.572;2.652;2023-04-08T09:53:29;7.90;;;1.43;;
68449;SDS011;67758;39.572;2.652;2023-04-08T09:55:59;6.25;;;1.17;;
68449;SDS011;67758;39.572;2.652;2023-04-08T09:58:32;13.18;;;1.00;;
68449;SDS011;67758;39.572;2.652;2023-04-08T10:01:03;9.75;;;0.90;;
68449;SDS011;67758;39.572;2.652;2023-04-08T10:03:33;7.00;;;1.15;;
68449;SDS011;67758;39.572;2.652;2023-04-08T10:06:02;4.73;;;0.60;;
68449;SDS011;67758;39.572;2.652;2023-04-08T10:08:28;5.10;;;0.90;;
68449;SDS011;67758;39.572;2.652;2023-04-08T10:10:55;6.20;;;1.05;;
68449;SDS011;67758;39.572;2.652;2023-04-08T10:13:21;7.45;;;1.15;;
68449;SDS011;67758;39.572;2.652;2023-04-08T10:15:48;7.03;;;1.17;;
68449;SDS011;67758;39.572;2.652;2023-04-08T10:20:43;5.20;;;0.75;;
68449;SDS011;67758;39.572;2.652;2023-04-08T10:23:13;5.57;;;1.38;;
68449;SDS011;67758;39.572;2.652;2023-04-08T10:25:43;5.83;;;1.00;;
68449;SDS011;67758;39.572;2.652;2023-04-08T10:30:44;7.15;;;1.38;;
68449;SDS011;67758;39.572;2.652;2023-04-08T10:36:26;10.75;;;1.42;;
68449;SDS011;67758;39.572;2.652;2023-04-08T10:38:36;4.10;;;1.10;;
68449;SDS011;67758;39.572;2.652;2023-04-08T10:41:03;5.20;;;1.30;;
68449;SDS011;67758;39.572;2.652;2023-04-08T10:43:35;6.43;;;1.38;;
68449;SDS011;67758;39.572;2.652;2023-04-08T10:46:01;6.30;;;1.50;;
68449;SDS011;67758;39.572;2.652;2023-04-08T10:48:27;3.90;;;1.10;;
68449;SDS011;67758;39.572;2.652;2023-04-08T10:50:53;5.28;;;1.42;;
68449;SDS011;67758;39.572;2.652;2023-04-08T10:56:06;6.00;;;1.70;;
68449;SDS011;67758;39.572;2.652;2023-04-08T10:58:33;4.45;;;1.20;;
68449;SDS011;67758;39.572;2.652;2023-04-08T11:01:07;6.45;;;1.67;;
68449;SDS011;67758;39.572;2.652;2023-04-08T11:03:33;8.18;;;2.47;;
68449;SDS011;67758;39.572;2.652;2023-04-08T11:05:59;6.15;;;1.90;;
68449;SDS011;67758;39.572;2.652;2023-04-08T11:08:33;6.57;;;2.20;;
68449;SDS011;67758;39.572;2.652;2023-04-08T11:11:00;7.07;;;2.05;;
68449;SDS011;67758;39.572;2.652;2023-04-08T11:13:27;6.82;;;2.50;;
68449;SDS011;67758;39.572;2.652;2023-04-08T11:15:53;8.57;;;2.45;;
68449;SDS011;67758;39.572;2.652;2023-04-08T11:18:23;6.68;;;2.22;;
68449;SDS011;67758;39.572;2.652;2023-04-08T11:20:49;6.03;;;1.70;;
68449;SDS011;67758;39.572;2.652;2023-04-08T11:23:16;5.05;;;1.90;;
68449;SDS011;67758;39.572;2.652;2023-04-08T11:25:43;6.40;;;2.67;;
68449;SDS011;67758;39.572;2.652;2023-04-08T11:28:11;8.18;;;2.72;;
68449;SDS011;67758;39.572;2.652;2023-04-08T11:30:38;6.85;;;2.35;;
68449;SDS011;67758;39.572;2.652;2023-04-08T11:33:05;9.10;;;2.43;;
68449;SDS011;67758;39.572;2.652;2023-04-08T11:35:32;5.35;;;2.22;;
68449;SDS011;67758;39.572;2.652;2023-04-08T11:37:58;10.65;;;3.45;;
68449;SDS011;67758;39.572;2.652;2023-04-08T11:40:24;6.93;;;2.22;;
68449;SDS011;67758;39.572;2.652;2023-04-08T11:42:50;7.10;;;2.13;;
68449;SDS011;67758;39.572;2.652;2023-04-08T11:45:20;6.32;;;2.38;;
68449;SDS011;67758;39.572;2.652;2023-04-08T11:47:46;5.50;;;1.95;;
68449;SDS011;67758;39.572;2.652;2023-04-08T11:50:17;6.75;;;2.55;;
68449;SDS011;67758;39.572;2.652;2023-04-08T11:52:50;7.35;;;2.80;;
68449;SDS011;67758;39.572;2.652;2023-04-08T11:55:24;7.23;;;2.90;;
68449;SDS011;67758;39.572;2.652;2023-04-08T11:57:53;6.05;;;2.28;;
68449;SDS011;67758;39.572;2.652;2023-04-08T12:00:20;10.45;;;3.65;;
68449;SDS011;67758;39.572;2.652;2023-04-08T12:02:46;6.60;;;2.40;;
68449;SDS011;67758;39.572;2.652;2023-04-08T12:05:15;5.63;;;2.53;;
68449;SDS011;67758;39.572;2.652;2023-04-08T12:07:41;11.17;;;4.77;;
68449;SDS011;67758;39.572;2.652;2023-04-08T12:10:08;7.95;;;2.83;;
68449;SDS011;67758;39.572;2.652;2023-04-08T12:12:34;6.88;;;2.60;;
68449;SDS011;67758;39.572;2.652;2023-04-08T12:15:00;7.15;;;2.40;;
68449;SDS011;67758;39.572;2.652;2023-04-08T12:17:26;7.63;;;2.88;;
68449;SDS011;67758;39.572;2.652;2023-04-08T12:19:51;7.60;;;2.20;;
68449;SDS011;67758;39.572;2.652;2023-04-08T12:22:17;7.00;;;3.33;;
68449;SDS011;67758;39.572;2.652;2023-04-08T12:24:43;9.80;;;2.78;;
68449;SDS011;67758;39.572;2.652;2023-04-08T12:27:09;15.17;;;7.20;;
68449;SDS011;67758;39.572;2.652;2023-04-08T12:29:34;9.75;;;3.55;;
68449;SDS011;67758;39.572;2.652;2023-04-08T12:32:00;9.07;;;3.28;;
68449;SDS011;67758;39.572;2.652;2023-04-08T12:34:28;9.65;;;3.15;;
68449;SDS011;67758;39.572;2.652;2023-04-08T12:36:54;9.00;;;2.90;;
68449;SDS011;67758;39.572;2.652;2023-04-08T12:39:20;6.53;;;2.20;;
68449;SDS011;67758;39.572;2.652;2023-04-08T12:41:46;7.30;;;2.40;;
68449;SDS011;67758;39.572;2.652;2023-04-08T12:44:12;10.32;;;2.22;;
68449;SDS011;67758;39.572;2.652;2023-04-08T12:46:37;6.43;;;1.92;;
68449;SDS011;67758;39.572;2.652;2023-04-08T12:49:03;7.20;;;2.20;;
68449;SDS011;67758;39.572;2.652;2023-04-08T12:51:29;10.37;;;2.10;;
68449;SDS011;67758;39.572;2.652;2023-04-08T12:53:55;11.45;;;2.17;;
68449;SDS011;67758;39.572;2.652;2023-04-08T12:56:20;6.30;;;1.77;;
68449;SDS011;67758;39.572;2.652;2023-04-08T12:58:46;5.87;;;1.80;;
68449;SDS011;67758;39.572;2.652;2023-04-08T13:01:12;6.78;;;1.70;;
68449;SDS011;67758;39.572;2.652;2023-04-08T13:03:38;9.67;;;2.83;;
68449;SDS011;67758;39.572;2.652;2023-04-08T13:06:03;7.85;;;2.83;;
68449;SDS011;67758;39.572;2.652;2023-04-08T13:08:31;7.37;;;2.10;;
68449;SDS011;67758;39.572;2.652;2023-04-08T13:10:57;9.57;;;3.28;;
68449;SDS011;67758;39.572;2.652;2023-04-08T13:13:23;7.77;;;1.80;;
68449;SDS011;67758;39.572;2.652;2023-04-08T13:15:48;16.03;;;5.00;;
68449;SDS011;67758;39.572;2.652;2023-04-08T13:18:14;6.80;;;2.33;;
68449;SDS011;67758;39.572;2.652;2023-04-08T13:20:39;21.13;;;9.13;;
68449;SDS011;67758;39.572;2.652;2023-04-08T13:23:05;6.83;;;2.43;;
68449;SDS011;67758;39.572;2.652;2023-04-08T13:25:31;6.03;;;1.90;;
68449;SDS011;67758;39.572;2.652;2023-04-08T13:27:56;7.27;;;1.83;;
68449;SDS011;67758;39.572;2.652;2023-04-08T13:30:22;4.43;;;1.40;;
68449;SDS011;67758;39.572;2.652;2023-04-08T13:32:48;6.43;;;1.45;;
68449;SDS011;67758;39.572;2.652;2023-04-08T13:35:13;6.43;;;1.87;;
68449;SDS011;67758;39.572;2.652;2023-04-08T13:37:39;4.50;;;1.40;;
68449;SDS011;67758;39.572;2.652;2023-04-08T13:40:04;6.88;;;1.60;;
68449;SDS011;67758;39.572;2.652;2023-04-08T13:42:33;6.93;;;1.70;;
68449;SDS011;67758;39.572;2.652;2023-04-08T13:44:59;6.30;;;2.00;;
68449;SDS011;67758;39.572;2.652;2023-04-08T13:47:25;6.35;;;1.67;;
68449;SDS011;67758;39.572;2.652;2023-04-08T13:49:53;6.32;;;1.20;;
68449;SDS011;67758;39.572;2.652;2023-04-08T13:52:18;6.50;;;1.70;;
68449;SDS011;67758;39.572;2.652;2023-04-08T13:54:44;9.68;;;2.30;;
68449;SDS011;67758;39.572;2.652;2023-04-08T13:57:10;5.40;;;1.10;;
68449;SDS011;67758;39.572;2.652;2023-04-08T13:59:36;5.47;;;1.50;;
68449;SDS011;67758;39.572;2.652;2023-04-08T14:02:01;4.87;;;1.17;;
68449;SDS011;67758;39.572;2.652;2023-04-08T14:04:27;6.95;;;1.42;;
68449;SDS011;67758;39.572;2.652;2023-04-08T14:06:53;6.23;;;1.50;;
68449;SDS011;67758;39.572;2.652;2023-04-08T14:09:19;7.10;;;1.40;;
68449;SDS011;67758;39.572;2.652;2023-04-08T14:11:45;5.53;;;1.30;;
68449;SDS011;67758;39.572;2.652;2023-04-08T14:14:11;5.43;;;1.07;;
68449;SDS011;67758;39.572;2.652;2023-04-08T14:16:37;6.35;;;2.08;;
68449;SDS011;67758;39.572;2.652;2023-04-08T14:19:02;6.87;;;1.43;;
68449;SDS011;67758;39.572;2.652;2023-04-08T14:21:29;5.63;;;1.38;;
68449;SDS011;67758;39.572;2.652;2023-04-08T14:23:59;6.28;;;1.55;;
68449;SDS011;67758;39.572;2.652;2023-04-08T14:26:24;5.23;;;1.43;;
68449;SDS011;67758;39.572;2.652;2023-04-08T14:28:50;6.15;;;1.38;;
68449;SDS011;67758;39.572;2.652;2023-04-08T14:31:16;6.17;;;1.63;;
68449;SDS011;67758;39.572;2.652;2023-04-08T14:33:41;10.00;;;1.97;;
68449;SDS011;67758;39.572;2.652;2023-04-08T14:36:07;5.68;;;1.98;;
68449;SDS011;67758;39.572;2.652;2023-04-08T14:38:34;7.78;;;1.90;;
68449;SDS011;67758;39.572;2.652;2023-04-08T14:41:00;6.00;;;1.73;;
68449;SDS011;67758;39.572;2.652;2023-04-08T14:43:26;6.63;;;1.87;;
68449;SDS011;67758;39.572;2.652;2023-04-08T14:45:51;6.47;;;1.80;;
68449;SDS011;67758;39.572;2.652;2023-04-08T14:48:17;6.85;;;1.90;;
68449;SDS011;67758;39.572;2.652;2023-04-08T14:50:43;6.93;;;1.77;;
68449;SDS011;67758;39.572;2.652;2023-04-08T14:53:10;5.15;;;2.08;;
68449;SDS011;67758;39.572;2.652;2023-04-08T14:55:35;7.50;;;1.85;;
68449;SDS011;67758;39.572;2.652;2023-04-08T14:58:01;4.30;;;1.90;;
68449;SDS011;67758;39.572;2.652;2023-04-08T15:00:27;8.80;;;2.00;;
68449;SDS011;67758;39.572;2.652;2023-04-08T15:02:52;4.80;;;1.70;;
68449;SDS011;67758;39.572;2.652;2023-04-08T15:05:18;8.10;;;2.10;;
68449;SDS011;67758;39.572;2.652;2023-04-08T15:07:44;8.05;;;2.20;;